KEKO/EKO METAR and TAF weather

Enter ICAO airport designator
Station Type Date Time Source
KEKO METAR 2021/02/27 20:56 UTC NOAA

KEKO 272056Z AUTO 28007KT 1/4SM SN FZFG BKN010 OVC030 M04/M06 A3000 RMK AO2 SNB14 SLP198 P0000 60000 T10441061 53003


Station Type Date Time Source
KEKO Decoded METAR 2021/02/27 20:56 UTC NOAA

ELKO REGIONAL AIRPORT, NV, United States (KEKO) 40-50N 115-47W 1547M
Feb 27, 2021 - 03:56 PM EST / 2021.02.27 2056 UTC
Wind: from the W (280 degrees) at 8 MPH (7 KT):0
Visibility: 1/4 mile(s):0
Sky conditions: overcast
Weather: snow; freezing fog
Precipitation last hour: A trace
Temperature: 24.1 F (-4.4 C)
Windchill: 15 F (-9 C):1
Dew Point: 21.0 F (-6.1 C)
Relative Humidity: 87%
Pressure (altimeter): 30 in. Hg (1015 hPa)
Pressure tendency: 0.01 inches (0.3 hPa) higher than three hours ago
ob: KEKO 272056Z AUTO 28007KT 1/4SM SN FZFG BKN010 OVC030 M04/M06 A3000 RMK AO2 SNB14 SLP198 P0000 60000 T10441061 53003
cycle: 21

Station Type Date Time Source
KEKO TAF 2021/02/27 18:58 UTC NOAA

TAF
AMD KEKO 271756Z 2718/2818 24012KT 4SM -SN VCSH BKN040 OVC110
TEMPO 2718/2720 1/4SM SN FZFG BKN010
FM272100 30015G20KT P6SM VCSH BKN040
FM280000 31011KT P6SM SCT050 BKN100
FM280300 VRB05KT P6SM FEW030 BKN120
TEMPO 2812/2816 BKN020

Example: see airport list